Tiempo atmosférico en la estación meteorológica de Vallehermoso, Dama, Santa Cruz de Tenerife (190 m.)



Fecha
DESCASC
Temp. máxima en grados centígrados (hora)
DESCASC
Temp. mínima en grados centígrados (hora)
DESCASC
Temp. media en grados centígrados
DESCASC
Racha de viento máxima en m/sg (hora)
DESCASC
Velocidad máxima media en intervalos de 10 minutos(hora)
DESCASC
Precipitaciones diarias en mm
DESCASC
Precipitaciones de 00:00 a 06:00 en mm
DESCASC
Precipitaciones de 06:00 a 12:00 en mm
DESCASC
Precipitaciones de 12:00 a 18:00 en mm
DESCASC
Precipitaciones de 18:00 a 24:00 en mm
DESCASC
28-02-2021 23.7 (14:40) 13.9 (00:00) 18.8 11.11 (07:00) 5.28 (03:40) 0 0 0 0 0
27-02-2021 22.7 (14:10) 12.1 (08:00) 17.4 11.39 (14:00) 5.28 (12:20) 0 0 0 0 0
26-02-2021 23.2 (14:20) 14.4 (03:10) 18.8 14.72 (10:40) 6.94 (10:50) 0 0 0 0 0
25-02-2021 24 (15:10) 15.3 (00:00) 19.7 16.39 (05:50) 8.61 (06:00) 0 0 0 0 0
24-02-2021 24.3 (14:00) 13.7 (00:00) 19 13.06 (23:20) 6.11 (23:20) 0 0 0 0 0
23-02-2021 24.6 (14:20) 13.4 (00:00) 19 5.56 (18:20) 3.33 (19:10) 0 0 0 0 0
22-02-2021 22.7 (15:40) 12.5 (00:00) 17.6 6.11 (12:30) 3.61 (14:30) 0 0 0 0 0
21-02-2021 23.5 (13:00) 14.1 (00:00) 18.8 16.39 (00:10) 10.56 (00:10) 0 0 0 0 0
20-02-2021 23.3 (12:10) 14.4 (00:00) 18.8 18.33 (22:20) 11.67 (22:20) 1.2 0 0 0.8 0.4
19-02-2021 24.6 (15:40) 12 (00:00) 18.3 7.78 (18:40) 3.89 (18:50) 0 0 0 0 0
18-02-2021 25.1 (13:30) 11.9 (00:00) 18.5 5.28 (16:20) 3.61 (16:00) 0 0 0 0 0
17-02-2021 22.1 (13:30) 13.8 (00:00) 18 10 (10:40) 5.83 (11:50) 0 0 0 0 0
16-02-2021 23.2 (01:00) 15.5 (00:00) 19.4 15.83 (14:00) 8.61 (16:40) 0 0 0 0 0
15-02-2021 26.7 (13:00) 13 (00:00) 19.9 14.17 (12:20) 7.22 (13:40) 0 0 0 0 0
14-02-2021 23.7 (15:20) 13.6 (00:00) 18.7 4.44 (15:20) 3.06 (13:40) 0 0 0 0 0
13-02-2021 24.2 (13:00) 14.5 (00:00) 19.4 5.28 (16:10) 3.61 (13:50) 0 0 0 0 0
12-02-2021 24.7 (13:50) 13.7 (00:00) 19.2 6.11 (16:00) 3.06 (14:20) 0 0 0 0 0
11-02-2021 23.1 (14:50) 12.5 (00:00) 17.8 5.56 (16:40) 3.33 (16:40) 0 0 0 0 0
10-02-2021 24.3 (14:00) 12.3 (00:00) 18.3 7.22 (14:40) 4.17 (14:40) 0 0 0 0 0
09-02-2021 23.8 (14:00) 11.9 (00:00) 17.8 8.89 (17:10) 5.28 (17:10) 0 0 0 0 0
08-02-2021 21.3 (11:00) 13 (00:00) 17.1 4.17 (20:00) 2.22 (00:50) 0 0 0 0 0
07-02-2021 23 (14:40) 11.3 (00:00) 17.2 10 (01:50) 3.89 (01:10) 0 0 0 0 0
06-02-2021 21.1 (14:20) 12.8 (00:00) 17 12.78 (00:20) 6.11 (00:40) 0 0 0 0 0
05-02-2021 17.6 (15:10) 11 (00:00) 14.3 15.83 (22:00) 7.78 (13:20) 15 11.8 0.2 2.6 0.4
04-02-2021 19.4 (12:00) 14.5 (00:00) 16.9 17.22 (11:20) 10.56 (11:10) 0 0 0 0 0
03-02-2021 23.3 (14:40) 14.3 (00:00) 18.8 8.33 (15:20) 5 (16:20) 0 0 0 0 0
02-02-2021 24.5 (13:10) 14.2 (06:40) 19.3 5.56 (16:30) 3.61 (16:30) 0 0 0 0 0
01-02-2021 24.7 (12:10) 14.1 (00:00) 19.4 5.56 (08:10) 3.61 (08:10) 0 0 0 0 0
31-01-2021 24.1 (13:10) 14.7 (00:00) 19.4 5.83 (05:50) 3.33 (05:50) 0 0 0 0 0
30-01-2021 24.7 (13:40) 14.7 (00:00) 19.7 9.17 (05:40) 5.83 (05:40) 0 0 0 0 0

Gráficas

Temp. máximas Temp. mínimas Temp. medias Precipitaciones Rachas de viento máximas Velocidades máximas media en intervalos de 10 minutos

Datos horarios

Fecha y hora oficial Temperatura (ºC) Velocidad del viento (km/h) Dirección del viento Racha (km/h) Dirección de racha Precipitación (mm) Presión (hPa) Tendencia (hPa) Humedad (%)
2021-02-28 23:00:00 16.1 8 Nordeste 26 Nordeste 0 -- -- 60
2021-02-28 22:00:00 16.1 12 Nordeste 23 Nordeste 0 -- -- 60
2021-02-28 21:00:00 16.7 9 Este 25 Este 0 -- -- 57
2021-02-28 20:00:00 17.4 6 Nordeste 21 Este 0 -- -- 55
2021-02-28 19:00:00 19 4 Sudeste 19 Norte 0 -- -- 50
2021-02-28 18:00:00 20.7 7 Norte 24 Este 0 -- -- 42
2021-02-28 17:00:00 22.1 7 Norte 26 Este 0 -- -- 49
2021-02-28 16:00:00 22.4 6 Sur 22 Nordeste 0 -- -- 47
2021-02-28 15:00:00 22.6 8 Sur 25 Norte 0 -- -- 49
2021-02-28 14:00:00 22.7 11 Norte 30 Norte 0 -- -- 42
2021-02-28 13:00:00 22.4 10 Norte 26 Sudeste 0 -- -- 46
2021-02-28 12:00:00 20.9 10 Nordeste 21 Nordeste 0 -- -- 50
2021-02-28 11:00:00 20.7 11 Sudeste 35 Nordeste 0 -- -- 50
2021-02-28 10:00:00 18.3 7 Este 22 Sudeste 0 -- -- 59
2021-02-28 09:00:00 16.4 10 Nordeste 26 Nordeste 0 -- -- 64
2021-02-28 08:00:00 15.4 13 Nordeste 31 Norte 0 -- -- 65
2021-02-28 07:00:00 15.2 15 Nordeste 40 Norte 0 -- -- 66
2021-02-28 06:00:00 15.2 17 Nordeste 36 Norte 0 -- -- 65
2021-02-28 05:00:00 14.9 12 Norte 27 Norte 0 -- -- 66
2021-02-28 04:00:00 14.8 14 Norte 36 Noroeste 0 -- -- 65
2021-02-28 03:00:00 14.2 6 Norte 26 Norte 0 -- -- 66
2021-02-28 02:00:00 14.3 10 Norte 25 Norte 0 -- -- 64
2021-02-28 01:00:00 14.5 10 Nordeste 28 Nordeste 0 -- -- 59
2021-02-28 00:00:00 13.9 10 Nordeste 22 Norte 0 -- -- 60
2021-02-27 23:00:00 14 7 Este 24 Nordeste 0 -- -- 57
2021-02-27 22:00:00 14.8 15 Nordeste 31 Norte 0 -- -- 56
2021-02-27 21:00:00 14.7 8 Nordeste 33 Norte 0 -- -- 57
2021-02-27 20:00:00 15.2 15 Nordeste 41 Norte 0 -- -- 59
2021-02-27 19:00:00 16.3 12 Nordeste 41 Nordeste 0 -- -- 56
2021-02-27 18:00:00 17.6 17 Nordeste 37 Nordeste 0 -- -- 54
2021-02-27 17:00:00 21.1 12 Norte 30 Nordeste 0 -- -- 41
2021-02-27 16:00:00 21.3 12 Este 31 Sudeste 0 -- -- 40
2021-02-27 15:00:00 21.5 8 Este 31 Sudoeste 0 -- -- 37
2021-02-27 14:00:00 22.3 9 Norte 41 Nordeste 0 -- -- 37
2021-02-27 13:00:00 21.1 15 Nordeste 38 Nordeste 0 -- -- 37
2021-02-27 12:00:00 20.5 11 Nordeste 34 Nordeste 0 -- -- 39
2021-02-27 11:00:00 19.5 18 Nordeste 31 Nordeste 0 -- -- 42
2021-02-27 10:00:00 19 5 Sudeste 17 Norte 0 -- -- 48
2021-02-27 09:00:00 15.7 4 Noroeste 8 Oeste 0 -- -- 59
2021-02-27 08:00:00 12.1 3 Este 10 Sudoeste 0 -- -- 70
2021-02-27 07:00:00 13.6 6 Sudeste 22 Este 0 -- -- 62
2021-02-27 06:00:00 13.6 5 Nordeste 19 Este 0 -- -- 55
2021-02-27 05:00:00 14.1 7 Nordeste 35 Nordeste 0 -- -- 56
2021-02-27 04:00:00 14.3 14 Norte 25 Norte 0 -- -- 59
2021-02-27 03:00:00 14.9 8 Norte 23 Nordeste 0 -- -- 61
2021-02-27 02:00:00 15 13 Nordeste 38 Nordeste 0 -- -- 56
2021-02-27 01:00:00 15.4 13 Nordeste 27 Norte 0 -- -- 59
2021-02-27 00:00:00 15.3 5 Este 22 Norte 0 -- -- 58
2021-02-26 23:00:00 16 9 Norte 26 Norte 0 -- -- 58
2021-02-26 22:00:00 16 10 Este 30 Nordeste 0 -- -- 61
2021-02-26 21:00:00 15.7 4 Sudeste 21 Norte 0 -- -- 56
2021-02-26 20:00:00 16.2 13 Este 35 Este 0 -- -- 53
2021-02-26 19:00:00 17.1 8 Nordeste 37 Este 0 -- -- 51
2021-02-26 18:00:00 18.5 19 Nordeste 44 Este 0 -- -- 49
2021-02-26 17:00:00 21.3 9 Sudeste 42 Este 0 -- -- 42
2021-02-26 16:00:00 21.8 10 Sur 21 Sudoeste 0 -- -- 45
2021-02-26 15:00:00 23.2 8 Oeste 23 Oeste 0 -- -- 43
2021-02-26 14:00:00 23.1 9 Sudoeste 15 Sur 0 -- -- 41
2021-02-26 13:00:00 22.2 10 Sudoeste 33 Nordeste 0 -- -- 43
2021-02-26 12:00:00 21.3 10 Sudeste 32 Noroeste 0 -- -- 45
2021-02-26 11:00:00 19.6 17 Este 53 Este 0 -- -- 46
2021-02-26 10:00:00 19.1 10 Este 40 Norte 0 -- -- 50
2021-02-26 09:00:00 17.2 8 Nordeste 22 Sudeste 0 -- -- 56
2021-02-26 08:00:00 14.6 7 Este 26 Este 0 -- -- 59
2021-02-26 07:00:00 15.1 14 Este 45 Nordeste 0 -- -- 57
2021-02-26 06:00:00 15.5 13 Sudeste 29 Este 0 -- -- 55
2021-02-26 05:00:00 15.6 22 Nordeste 46 Este 0 -- -- 54
2021-02-26 04:00:00 15.3 12 Este 26 Este 0 -- -- 53
2021-02-26 03:00:00 14.7 6 Este 35 Nordeste 0 -- -- 51
2021-02-26 02:00:00 15.9 6 Este 36 Este 0 -- -- 43
2021-02-26 01:00:00 16 15 Este 39 Sudeste 0 -- -- 40
2021-02-26 00:00:00 15.3 5 Nordeste 27 Nordeste 0 -- -- 48
2021-02-25 23:00:00 16.7 12 Nordeste 39 Nordeste 0 -- -- 47
2021-02-25 22:00:00 17 15 Este 31 Nordeste 0 -- -- 49
2021-02-25 21:00:00 17.3 15 Este 38 Este 0 -- -- 57
2021-02-25 20:00:00 17.9 15 Este 38 Este 0 -- -- 57
2021-02-25 19:00:00 19.1 8 Norte 17 Este 0 -- -- 56
2021-02-25 18:00:00 20.6 6 Sudoeste 17 Sur 0 -- -- 71
2021-02-25 17:00:00 22.9 11 Sur 39 Este 0 -- -- 61
2021-02-25 16:00:00 23.2 22 Este 41 Este 0 -- -- 48
2021-02-25 15:00:00 23.8 11 Sudeste 25 Sudeste 0 -- -- 49
2021-02-25 14:00:00 23.6 9 Sur 18 Sudoeste 0 -- -- 56
2021-02-25 13:00:00 23.4 10 Sur 18 Sur 0 -- -- 55
2021-02-25 12:00:00 23.1 9 Sudoeste 24 Sur 0 -- -- 59
2021-02-25 11:00:00 22.5 6 Sudoeste 32 Sudeste 0 -- -- 61
2021-02-25 10:00:00 21.3 17 Sudeste 41 Sudeste 0 -- -- 53
2021-02-25 09:00:00 19.5 14 Sur 38 Este 0 -- -- 63
2021-02-25 08:00:00 18.1 14 Sudeste 43 Este 0 -- -- 61
2021-02-25 07:00:00 18.5 12 Este 55 Este 0 -- -- 55
2021-02-25 06:00:00 18.1 31 Este 59 Este 0 -- -- 59
2021-02-25 05:00:00 18.2 21 Este 49 Este 0 -- -- 57
2021-02-25 04:00:00 18.4 24 Este 51 Este 0 -- -- 56
2021-02-25 03:00:00 18.1 17 Este 53 Sudeste 0 -- -- 56
2021-02-25 02:00:00 16.2 6 Este 24 Este 0 -- -- 76
2021-02-25 01:00:00 17.7 7 Sudeste 39 Este 0 -- -- 61
2021-02-25 00:00:00 18.1 18 Este 47 Nordeste 0 -- -- 58
2021-02-24 23:00:00 17.9 19 Este 42 Este 0 -- -- 61
2021-02-24 22:00:00 17.1 8 Este 14 Este 0 -- -- 68
2021-02-24 21:00:00 16.8 5 Sudoeste 11 Noroeste 0 -- -- 70
2021-02-24 20:00:00 17.9 5 Sudeste 11 Este 0 -- -- 68
2021-02-24 19:00:00 19.3 4 Oeste 9 Oeste 0 -- -- 69
2021-02-24 18:00:00 21.1 7 Sudoeste 14 Sudoeste 0 -- -- 64
2021-02-24 17:00:00 22.9 9 Sudoeste 15 Sudoeste 0 -- -- 58
2021-02-24 16:00:00 23.5 9 Sudoeste 17 Oeste 0 -- -- 55
2021-02-24 15:00:00 23.7 10 Sudoeste 19 Sudoeste 0 -- -- 55
2021-02-24 14:00:00 24.3 12 Oeste 21 Sudoeste 0 -- -- 54
2021-02-24 13:00:00 23.9 12 Oeste 20 Oeste 0 -- -- 56
2021-02-24 12:00:00 23 8 Oeste 15 Sudoeste 0 -- -- 58
2021-02-24 11:00:00 20.9 8 Sur 13 Sur 0 -- -- 61
2021-02-24 10:00:00 20.1 6 Sur 13 Sudeste 0 -- -- 66
2021-02-24 09:00:00 17 4 Sudoeste 6 Sudoeste 0 -- -- 81
2021-02-24 08:00:00 13.7 0 Calma 5 Nordeste 0 -- -- 90
2021-02-24 07:00:00 14.2 5 Nordeste 8 Sudeste 0 -- -- 89
2021-02-24 06:00:00 15 2 Sudeste 9 Sudeste 0 -- -- 85
2021-02-24 05:00:00 16.1 3 Este 10 Sudoeste 0 -- -- 84
2021-02-24 04:00:00 14.9 0 Calma 7 Sur 0 -- -- 88
2021-02-24 03:00:00 15.9 2 Este 10 Este 0 -- -- 81
2021-02-24 02:00:00 16.3 3 Sudeste 8 Sudeste 0 -- -- 85
2021-02-24 01:00:00 16.8 2 Sur 9 Sudeste 0 -- -- 86
2021-02-24 00:00:00 16.4 5 Sudeste 9 Sudeste 0 -- -- 88
2021-02-23 23:00:00 16.2 0 Calma 7 Sudeste 0 -- -- 87
2021-02-23 22:00:00 16.7 0 Calma 6 Sur 0 -- -- 83
2021-02-23 21:00:00 17.4 3 Sudoeste 12 Sudeste 0 -- -- 83
2021-02-23 20:00:00 17.7 8 Sur 19 Sur 0 -- -- 82
2021-02-23 19:00:00 18.5 10 Sur 20 Sur 0 -- -- 77
2021-02-23 18:00:00 20 10 Sur 17 Sudeste 0 -- -- 72
2021-02-23 17:00:00 21.5 10 Sur 17 Sur 0 -- -- 67
2021-02-23 16:00:00 22.9 8 Sur 14 Sudoeste 0 -- -- 61
2021-02-23 15:00:00 24.3 9 Sudoeste 15 Sudoeste 0 -- -- 57
2021-02-23 14:00:00 24.3 8 Oeste 17 Oeste 0 -- -- 58
2021-02-23 13:00:00 23.7 8 Oeste 14 Sudoeste 0 -- -- 59
2021-02-23 12:00:00 23.7 8 Oeste 15 Oeste 0 -- -- 64
2021-02-23 11:00:00 22.5 7 Oeste 11 Oeste 0 -- -- 67
2021-02-23 10:00:00 20.3 6 Oeste 9 Oeste 0 -- -- 74
2021-02-23 09:00:00 16.9 2 Norte 10 Nordeste 0 -- -- 88
2021-02-23 08:00:00 13.5 6 Nordeste 8 Nordeste 0 -- -- 93
2021-02-23 07:00:00 13.5 5 Nordeste 9 Nordeste 0 -- -- 92
2021-02-23 06:00:00 13.5 7 Nordeste 9 Nordeste 0 -- -- 93
2021-02-23 05:00:00 13.9 3 Este 10 Este 0 -- -- 91
2021-02-23 04:00:00 14.3 8 Este 10 Este 0 -- -- 89
2021-02-23 03:00:00 14.4 7 Sudeste 14 Sudeste 0 -- -- 89
2021-02-23 02:00:00 14.4 6 Sudeste 8 Sudeste 0 -- -- 89
2021-02-23 01:00:00 13.9 0 Calma 6 Nordeste 0 -- -- 88
2021-02-23 00:00:00 14.7 3 Nordeste 8 Este 0 -- -- 86
2021-02-22 23:00:00 15.5 5 Sudeste 9 Sudeste 0 -- -- 86
2021-02-22 22:00:00 15.5 2 Sudeste 6 Noroeste 0 -- -- 86
2021-02-22 21:00:00 16.4 4 Noroeste 9 Noroeste 0 -- -- 83
2021-02-22 20:00:00 17.1 5 Norte 10 Norte 0 -- -- 79
2021-02-22 19:00:00 18.8 5 Noroeste 12 Noroeste 0 -- -- 71
2021-02-22 18:00:00 20.9 8 Noroeste 14 Noroeste 0 -- -- 62
2021-02-22 17:00:00 22.6 8 Oeste 13 Sudoeste 0 -- -- 58
2021-02-22 16:00:00 22.2 9 Sudoeste 16 Sur 0 -- -- 59
2021-02-22 15:00:00 22.3 11 Sur 18 Sur 0 -- -- 58
2021-02-22 14:00:00 21.6 11 Sur 18 Sur 0 -- -- 62
2021-02-22 13:00:00 21.1 12 Sur 22 Sudoeste 0 -- -- 62
2021-02-22 12:00:00 21.2 10 Sur 17 Sur 0 -- -- 59
2021-02-22 11:00:00 20.9 8 Sur 13 Sur 0 -- -- 60
2021-02-22 10:00:00 19.9 6 Sudoeste 9 Sudoeste 0 -- -- 63
2021-02-22 09:00:00 16.6 0 Calma 8 Este 0 -- -- 73
2021-02-22 08:00:00 13.3 6 Este 8 Este 0 -- -- 85
2021-02-22 07:00:00 12.5 3 Este 10 Nordeste 0 -- -- 88
2021-02-22 06:00:00 12.9 2 Sudeste 6 Este 0 -- -- 86
2021-02-22 05:00:00 13.3 5 Este 9 Este 0 -- -- 81
2021-02-22 04:00:00 13.1 5 Este 6 Este 0 -- -- 82
2021-02-22 03:00:00 13.1 2 Este 7 Este 0 -- -- 83
2021-02-22 02:00:00 13.4 4 Este 6 Este 0 -- -- 81
2021-02-22 01:00:00 13.5 5 Nordeste 8 Nordeste 0 -- -- 80
2021-02-22 00:00:00 14.1 3 Nordeste 8 Sudeste 0 -- -- 78
2021-02-21 23:00:00 15.6 5 Sudeste 10 Sudeste 0 -- -- 73
2021-02-21 22:00:00 16.1 4 Sudeste 13 Sur 0 -- -- 72
2021-02-21 21:00:00 16.2 3 Norte 16 Norte 0 -- -- 66
2021-02-21 20:00:00 16.8 8 Norte 23 Norte 0 -- -- 62
2021-02-21 19:00:00 17.7 12 Norte 23 Norte 0 -- -- 58
2021-02-21 18:00:00 20.2 11 Noroeste 24 Noroeste 0 -- -- 49
2021-02-21 17:00:00 21.6 8 Sudoeste 22 Noroeste 0 -- -- 49
2021-02-21 16:00:00 21.3 10 Sur 18 Sur 0 -- -- 56
2021-02-21 15:00:00 21.7 12 Sur 26 Sur 0 -- -- 53
2021-02-21 14:00:00 23.1 8 Sudoeste 18 Sur 0 -- -- 46
2021-02-21 13:00:00 23.5 9 Oeste 29 Norte 0 -- -- 45
2021-02-21 12:00:00 21.7 16 Noroeste 30 Noroeste 0 -- -- 50
2021-02-21 11:00:00 20.1 4 Nordeste 34 Este 0 -- -- 57
2021-02-21 10:00:00 17.8 14 Nordeste 37 Nordeste 0 -- -- 62
2021-02-21 09:00:00 17.1 18 Nordeste 30 Este 0 -- -- 64
2021-02-21 08:00:00 15.5 7 Nordeste 17 Noroeste 0 -- -- 73
2021-02-21 07:00:00 16.2 4 Norte 23 Nordeste 0 -- -- 70
2021-02-21 06:00:00 15.8 10 Nordeste 21 Este 0 -- -- 71
2021-02-21 05:00:00 16 14 Nordeste 37 Norte 0 -- -- 74
2021-02-21 04:00:00 16.5 21 Norte 58 Norte 0 -- -- 77
2021-02-21 03:00:00 16.5 27 Norte 52 Noroeste 0 -- -- 70
2021-02-21 02:00:00 16.8 31 Norte 54 Noroeste 0 -- -- 77
2021-02-21 01:00:00 17 22 Norte 59 Norte 0 -- -- 74
2021-02-21 00:00:00 17.4 41 Norte 65 Norte 0 -- -- 71
2021-02-20 23:00:00 16.9 22 Norte 66 Norte 0.4 -- -- 87
2021-02-20 22:00:00 17.6 29 Norte 56 Norte 0 -- -- 84
2021-02-20 21:00:00 17.7 30 Norte 49 Norte 0 -- -- 85
2021-02-20 20:00:00 17.8 19 Norte 48 Noroeste 0 -- -- 93
2021-02-20 19:00:00 18.2 23 Noroeste 42 Noroeste 0 -- -- 95
2021-02-20 18:00:00 17.9 20 Noroeste 32 Noroeste 0.4 -- -- 93
2021-02-20 17:00:00 17.9 15 Noroeste 33 Noroeste 0.4 -- -- 93
2021-02-20 16:00:00 19.1 10 Oeste 28 Noroeste 0 -- -- 81
2021-02-20 15:00:00 19.6 10 Noroeste 35 Oeste 0 -- -- 76
2021-02-20 14:00:00 20.4 16 Oeste 31 Oeste 0 -- -- 71
2021-02-20 13:00:00 22.8 7 Sudoeste 14 Sudoeste 0 -- -- 62
2021-02-20 12:00:00 22.9 6 Norte 12 Oeste 0 -- -- 57
2021-02-20 11:00:00 20.2 5 Oeste 14 Norte 0 -- -- 69
2021-02-20 10:00:00 19.3 7 Noroeste 19 Noroeste 0 -- -- 69
2021-02-20 09:00:00 17.1 13 Noroeste 26 Noroeste 0 -- -- 78
2021-02-20 08:00:00 15.8 6 Noroeste 17 Oeste 0 -- -- 83
2021-02-20 07:00:00 16.1 12 Noroeste 22 Norte 0 -- -- 82
2021-02-20 06:00:00 15.7 12 Nordeste 21 Norte 0 -- -- 81
2021-02-20 05:00:00 15.3 12 Norte 25 Norte 0 -- -- 81
2021-02-20 04:00:00 14.6 9 Norte 14 Norte 0 -- -- 82
2021-02-20 03:00:00 14.7 8 Norte 15 Norte 0 -- -- 83
2021-02-20 02:00:00 14.7 8 Norte 14 Norte 0 -- -- 84
2021-02-20 01:00:00 15.3 10 Norte 18 Norte 0 -- -- 80
2021-02-20 00:00:00 15.2 8 Norte 21 Norte 0 -- -- 76
2021-02-19 23:00:00 16 14 Norte 24 Norte 0 -- -- 71
2021-02-19 22:00:00 16 9 Norte 18 Noroeste 0 -- -- 70
2021-02-19 21:00:00 16.5 8 Norte 22 Norte 0 -- -- 52
2021-02-19 20:00:00 17 12 Norte 22 Norte 0 -- -- 69
2021-02-19 19:00:00 17.9 12 Norte 28 Norte 0 -- -- 68
2021-02-19 18:00:00 20.4 12 Noroeste 21 Noroeste 0 -- -- 61
2021-02-19 17:00:00 22.9 7 Noroeste 16 Noroeste 0 -- -- 54
2021-02-19 16:00:00 24.3 10 Noroeste 16 Noroeste 0 -- -- 34
2021-02-19 15:00:00 23.6 6 Sudoeste 12 Sudoeste 0 -- -- 43
2021-02-19 14:00:00 22.9 6 Sur 12 Sur 0 -- -- 51
2021-02-19 13:00:00 22.2 8 Sur 16 Sur 0 -- -- 56
2021-02-19 12:00:00 21.9 9 Sur 15 Sur 0 -- -- 56
2021-02-19 11:00:00 21.7 6 Noroeste 13 Norte 0 -- -- 57
2021-02-19 10:00:00 19.5 5 Noroeste 8 Noroeste 0 -- -- 62
2021-02-19 09:00:00 15.2 2 Este 12 Sur 0 -- -- 77
2021-02-19 08:00:00 13.7 6 Sudeste 15 Sur 0 -- -- 70
2021-02-19 07:00:00 13.5 10 Sudeste 14 Sudeste 0 -- -- 61
2021-02-19 06:00:00 12.3 8 Este 13 Nordeste 0 -- -- 51
2021-02-19 05:00:00 12.3 7 Nordeste 10 Nordeste 0 -- -- 77
2021-02-19 04:00:00 12.3 5 Nordeste 8 Nordeste 0 -- -- 82
2021-02-19 03:00:00 13.3 4 Nordeste 10 Este 0 -- -- 77
2021-02-19 02:00:00 13.8 6 Sudeste 12 Sudeste 0 -- -- 72
2021-02-19 01:00:00 13.8 8 Sudeste 10 Sudeste 0 -- -- 70
2021-02-19 00:00:00 13.9 3 Sudeste 6 Nordeste 0 -- -- 71
2021-02-18 23:00:00 14.3 4 Nordeste 10 Noroeste 0 -- -- 69
2021-02-18 22:00:00 14.7 5 Norte 8 Noroeste 0 -- -- 67
2021-02-18 21:00:00 16.5 0 Calma 12 Sur 0 -- -- 60
2021-02-18 20:00:00 17.5 8 Sur 17 Sudeste 0 -- -- 59
2021-02-18 19:00:00 18.1 8 Sur 17 Sur 0 -- -- 54
2021-02-18 18:00:00 19.8 10 Sur 17 Sur 0 -- -- 47
2021-02-18 17:00:00 21.2 11 Sur 19 Sur 0 -- -- 43
2021-02-18 16:00:00 22.1 13 Sur 19 Sur 0 -- -- 36
2021-02-18 15:00:00 22.9 12 Sur 19 Sudoeste 0 -- -- 43
2021-02-18 14:00:00 24.1 9 Sudoeste 13 Sudoeste 0 -- -- 39
2021-02-18 13:00:00 24.8 6 Noroeste 12 Oeste 0 -- -- 26
2021-02-18 12:00:00 23 6 Oeste 11 Noroeste 0 -- -- 38
2021-02-18 11:00:00 21.2 4 Oeste 10 Noroeste 0 -- -- 45
2021-02-18 10:00:00 19.6 5 Oeste 9 Oeste 0 -- -- 55
2021-02-18 09:00:00 15.5 5 Nordeste 11 Este 0 -- -- 71
2021-02-18 08:00:00 13 9 Este 11 Este 0 -- -- 71
2021-02-18 07:00:00 12.3 2 Nordeste 9 Este 0 -- -- 75
2021-02-18 06:00:00 14.1 7 Este 12 Sudeste 0 -- -- 64
2021-02-18 05:00:00 14.7 8 Este 13 Este 0 -- -- 64
2021-02-18 04:00:00 13.8 8 Este 10 Este 0 -- -- 66
2021-02-18 03:00:00 14 6 Nordeste 10 Nordeste 0 -- -- 70
2021-02-18 02:00:00 14 8 Este 10 Este 0 -- -- 70
2021-02-18 01:00:00 14.6 5 Sudeste 14 Sur 0 -- -- 70
2021-02-18 00:00:00 14.4 8 Este 13 Este 0 -- -- 70
2021-02-17 23:00:00 14.2 4 Nordeste 9 Sudeste 0 -- -- 73
2021-02-17 22:00:00 15.3 3 Sudeste 12 Sur 0 -- -- 67
2021-02-17 21:00:00 16.7 2 Este 15 Sudoeste 0 -- -- 57
2021-02-17 20:00:00 18 11 Norte 26 Norte 0 -- -- 25
2021-02-17 19:00:00 18.8 9 Norte 29 Norte 0 -- -- 34
2021-02-17 18:00:00 20.2 15 Noroeste 28 Noroeste 0 -- -- 52
2021-02-17 17:00:00 21.6 9 Noroeste 23 Oeste 0 -- -- 49
2021-02-17 16:00:00 21.7 10 Sur 18 Sudeste 0 -- -- 45
2021-02-17 15:00:00 21.7 11 Sur 29 Sur 0 -- -- 48
2021-02-17 14:00:00 21.8 16 Sur 27 Sur 0 -- -- 43
2021-02-17 13:00:00 21.9 14 Sur 36 Sur 0 -- -- 45
2021-02-17 12:00:00 21 19 Sur 35 Sur 0 -- -- 44
2021-02-17 11:00:00 21.1 18 Sudeste 36 Sudeste 0 -- -- 37
2021-02-17 10:00:00 20.3 9 Sudeste 29 Sudeste 0 -- -- 35
2021-02-17 09:00:00 18.3 14 Sudeste 29 Sudeste 0 -- -- 38
2021-02-17 08:00:00 17.6 13 Sudeste 27 Sudeste 0 -- -- 40
2021-02-17 07:00:00 18 13 Sudeste 32 Sudeste 0 -- -- 33
2021-02-17 06:00:00 18.4 12 Sur 33 Sudeste 0 -- -- 28
2021-02-17 05:00:00 18.1 14 Sur 31 Sur 0 -- -- 28
2021-02-17 04:00:00 15 6 Sudeste 12 Sudeste 0 -- -- 64
2021-02-17 03:00:00 14.4 0 Calma 5 Nordeste 0 -- -- 56
2021-02-17 02:00:00 15.8 2 Norte 9 Sur 0 -- -- 49
2021-02-17 01:00:00 18.8 4 Sudoeste 23 Sur 0 -- -- 34
2021-02-17 00:00:00 19.7 12 Sudeste 30 Sudeste 0 -- -- 22
2021-02-16 23:00:00 18.3 9 Sudeste 21 Sudeste 0 -- -- 27
2021-02-16 22:00:00 15.9 6 Sudeste 14 Sudeste 0 -- -- 46
2021-02-16 21:00:00 16.1 4 Sudeste 13 Sur 0 -- -- 56
2021-02-16 20:00:00 17.5 6 Sudeste 14 Sur 0 -- -- 50
2021-02-16 19:00:00 18.8 11 Sudeste 32 Sudeste 0 -- -- 46
2021-02-16 18:00:00 19.9 18 Sudeste 44 Sur 0 -- -- 43
2021-02-16 17:00:00 20.9 24 Sur 49 Sur 0 -- -- 37
2021-02-16 16:00:00 21.6 26 Sudeste 51 Sur 0 -- -- 41
2021-02-16 15:00:00 21.7 24 Sur 50 Sudeste 0 -- -- 43
2021-02-16 14:00:00 21.7 26 Sur 57 Sudeste 0 -- -- 41
2021-02-16 13:00:00 21.9 22 Sudeste 45 Sudeste 0 -- -- 45
2021-02-16 12:00:00 21.6 23 Sudeste 46 Sudeste 0 -- -- 46
2021-02-16 11:00:00 21.3 23 Sudeste 50 Sudeste 0 -- -- 42
2021-02-16 10:00:00 21.1 20 Sudeste 43 Sudeste 0 -- -- 32
2021-02-16 09:00:00 20.1 22 Sudeste 50 Sudeste 0 -- -- 33
2021-02-16 08:00:00 19.9 24 Sudeste 47 Sudeste 0 -- -- 32
2021-02-16 07:00:00 20.3 28 Sudeste 50 Sudeste 0 -- -- 29
2021-02-16 06:00:00 20.7 28 Sudeste 50 Sudeste 0 -- -- 28
2021-02-16 05:00:00 20.9 28 Sudeste 50 Sudeste 0 -- -- 32
2021-02-16 04:00:00 21.4 22 Sudeste 45 Sudeste 0 -- -- 30
2021-02-16 03:00:00 22.3 15 Sudeste 39 Sudeste 0 -- -- 25
2021-02-16 02:00:00 23 18 Sudeste 35 Sudeste 0 -- -- 21
2021-02-16 01:00:00 23.2 15 Sudeste 29 Sudeste 0 -- -- 19
2021-02-16 00:00:00 22.7 12 Sudeste 26 Sudeste 0 -- -- 21
2021-02-15 23:00:00 22.6 11 Sudeste 26 Este 0 -- -- 22
2021-02-15 22:00:00 22.3 9 Sudeste 21 Sudeste 0 -- -- 21
2021-02-15 21:00:00 22.1 13 Sudeste 28 Sudeste 0 -- -- 21
2021-02-15 20:00:00 21.9 8 Sur 22 Sudeste 0 -- -- 25
2021-02-15 19:00:00 23.3 12 Sudeste 39 Sur 0 -- -- 21
2021-02-15 18:00:00 24.7 22 Sudeste 43 Sudeste 0 -- -- 20
2021-02-15 17:00:00 25.8 24 Sur 42 Sudeste 0 -- -- 20
2021-02-15 16:00:00 25.7 22 Sudeste 46 Sudeste 0 -- -- 22
2021-02-15 15:00:00 25.8 23 Sudeste 49 Sudeste 0 -- -- 24
2021-02-15 14:00:00 26.2 22 Sudeste 46 Sudeste 0 -- -- 25
2021-02-15 13:00:00 26.7 20 Sudeste 51 Sudeste 0 -- -- 21
2021-02-15 12:00:00 25.8 24 Sudeste 48 Sudeste 0 -- -- 21
2021-02-15 11:00:00 24.6 21 Sudeste 46 Sudeste 0 -- -- 24
2021-02-15 10:00:00 21.1 8 Sudoeste 23 Sudeste 0 -- -- 60
2021-02-15 09:00:00 16.2 0 Calma 10 Nordeste 0 -- -- 94
2021-02-15 08:00:00 14.2 3 Norte 9 Nordeste 0 -- -- 96
2021-02-15 07:00:00 14.3 4 Sudeste 17 Sur 0 -- -- 93
2021-02-15 06:00:00 13.4 3 Noroeste 10 Sudeste 0 -- -- 92
2021-02-15 05:00:00 13.1 0 Calma 11 Nordeste 0 -- -- 94
2021-02-15 04:00:00 13.9 2 Este 10 Sudeste 0 -- -- 96
2021-02-15 03:00:00 14 5 Sudeste 7 Sudeste 0 -- -- 96
2021-02-15 02:00:00 14.3 4 Nordeste 10 Nordeste 0 -- -- 95
2021-02-15 01:00:00 14.8 3 Norte 12 Norte 0 -- -- 94
2021-02-15 00:00:00 14.9 5 Norte 10 Norte 0 -- -- 96
2021-02-14 23:00:00 14.6 3 Norte 5 Norte 0 -- -- 92
2021-02-14 22:00:00 15.5 0 Calma 9 Sudeste 0 -- -- 88
2021-02-14 21:00:00 16.5 4 Sudeste 12 Sudeste 0 -- -- 86
2021-02-14 20:00:00 17 6 Sudeste 10 Sudeste 0 -- -- 85
2021-02-14 19:00:00 18.6 2 Norte 13 Noroeste 0 -- -- 78
2021-02-14 18:00:00 20.5 8 Oeste 16 Oeste 0 -- -- 73
2021-02-14 17:00:00 21.6 9 Oeste 15 Noroeste 0 -- -- 68
2021-02-14 16:00:00 22.6 10 Oeste 16 Sudoeste 0 -- -- 65
2021-02-14 15:00:00 23.3 10 Sudoeste 16 Sudoeste 0 -- -- 62
2021-02-14 14:00:00 22.9 9 Sudoeste 15 Sur 0 -- -- 64
2021-02-14 13:00:00 22.9 9 Sur 14 Sur 0 -- -- 67
2021-02-14 12:00:00 21.9 8 Sudoeste 14 Sur 0 -- -- 69
2021-02-14 11:00:00 20.4 8 Sur 13 Sur 0 -- -- 74
2021-02-14 10:00:00 19.7 5 Sur 8 Sur 0 -- -- 77
2021-02-14 09:00:00 16.3 0 Calma 6 Nordeste 0 -- -- 90
2021-02-14 08:00:00 13.7 6 Nordeste 10 Este 0 -- -- 93
2021-02-14 07:00:00 14.6 8 Este 10 Sudeste 0 -- -- 92
2021-02-14 06:00:00 14.6 7 Sudeste 12 Sudeste 0 -- -- 91
2021-02-14 05:00:00 15.2 8 Sudeste 13 Sur 0 -- -- 92
2021-02-14 04:00:00 14.9 7 Sudeste 12 Este 0 -- -- 92
2021-02-14 03:00:00 14.8 7 Sudeste 12 Sudeste 0 -- -- 92
2021-02-14 02:00:00 15 8 Este 12 Este 0 -- -- 91
2021-02-14 01:00:00 15.4 6 Este 8 Este 0 -- -- 90
2021-02-14 00:00:00 15.6 3 Este 8 Sudeste 0 -- -- 90
2021-02-13 23:00:00 16 5 Este 9 Sudeste 0 -- -- 87
2021-02-13 22:00:00 16.9 4 Sudeste 14 Sudeste 0 -- -- 84
2021-02-13 21:00:00 16.8 5 Sur 9 Sudeste 0 -- -- 86
2021-02-13 20:00:00 17.2 3 Sudeste 7 Oeste 0 -- -- 80
2021-02-13 19:00:00 18.7 4 Oeste 10 Noroeste 0 -- -- 75
2021-02-13 18:00:00 20.1 8 Oeste 12 Oeste 0 -- -- 69
2021-02-13 17:00:00 21.9 8 Sudoeste 19 Sur 0 -- -- 64
2021-02-13 16:00:00 22.6 10 Sudoeste 17 Sur 0 -- -- 63
2021-02-13 15:00:00 23.1 10 Sudoeste 16 Sudoeste 0 -- -- 62
2021-02-13 14:00:00 23.4 13 Sudoeste 18 Sudoeste 0 -- -- 61
2021-02-13 13:00:00 24.2 10 Oeste 16 Oeste 0 -- -- 59
2021-02-13 12:00:00 23.4 9 Oeste 14 Oeste 0 -- -- 61
2021-02-13 07:00:00 -- -- -- -- -- -- -- -- --
2021-02-13 06:00:00 14.8 8 Este 13 Este 0 -- -- 85
2021-02-13 05:00:00 14.7 8 Este 13 Este 0 -- -- 85
2021-02-13 04:00:00 14.7 7 Este 11 Este 0 -- -- 87
2021-02-13 03:00:00 14.6 5 Sudeste 8 Sudeste 0 -- -- 90
2021-02-13 02:00:00 15.2 5 Sudeste 12 Sudeste 0 -- -- 87
2021-02-13 01:00:00 15.1 3 Este 10 Sudeste 0 -- -- 87
2021-02-13 00:00:00 15.9 6 Este 10 Este 0 -- -- 86
2021-02-12 23:00:00 16.4 4 Nordeste 9 Sudoeste 0 -- -- 86
2021-02-12 22:00:00 16.7 3 Oeste 10 Norte 0 -- -- 83
2021-02-12 21:00:00 17.2 3 Este 7 Sudeste 0 -- -- 82
2021-02-12 20:00:00 18.1 5 Sudoeste 10 Sudoeste 0 -- -- 77
2021-02-12 19:00:00 18.9 6 Sudoeste 13 Oeste 0 -- -- 72
2021-02-12 18:00:00 20.2 8 Sudoeste 17 Sudoeste 0 -- -- 67
2021-02-12 17:00:00 21.6 10 Sur 19 Sudoeste 0 -- -- 60
2021-02-12 16:00:00 22.8 11 Sudoeste 22 Sudoeste 0 -- -- 57
2021-02-12 15:00:00 23 10 Oeste 18 Oeste 0 -- -- 57
2021-02-12 14:00:00 24.2 9 Sudoeste 18 Sudoeste 0 -- -- 53
2021-02-12 13:00:00 22.8 8 Sudoeste 19 Sur 0 -- -- 59
2021-02-12 12:00:00 22.5 9 Sur 14 Sur 0 -- -- 64
2021-02-12 11:00:00 21.7 6 Sudoeste 11 Oeste 0 -- -- 67
2021-02-12 10:00:00 19.2 4 Sur 8 Sur 0 -- -- 69
2021-02-12 09:00:00 14.9 3 Sudeste 7 Sudeste 0 -- -- 87
2021-02-12 08:00:00 13.8 5 Nordeste 11 Sudeste 0 -- -- 88
2021-02-12 07:00:00 13.8 5 Este 8 Este 0 -- -- 89
2021-02-12 06:00:00 14.2 4 Este 8 Este 0 -- -- 87
2021-02-12 05:00:00 14.5 7 Nordeste 9 Nordeste 0 -- -- 88
2021-02-12 04:00:00 14.8 6 Este 9 Este 0 -- -- 87
2021-02-12 03:00:00 15.2 4 Este 6 Este 0 -- -- 86
2021-02-12 02:00:00 15.1 0 Calma 6 Este 0 -- -- 86
2021-02-12 01:00:00 15.5 4 Este 10 Sudeste 0 -- -- 84
2021-02-12 00:00:00 16.6 3 Este 11 Este 0 -- -- 79
2021-02-11 23:00:00 16.8 4 Este 18 Sudoeste 0 -- -- 77
2021-02-11 22:00:00 16.7 6 Sudoeste 13 Sudoeste 0 -- -- 80
2021-02-11 21:00:00 16.7 0 Calma 6 Norte 0 -- -- 82
2021-02-11 20:00:00 17.6 3 Sudoeste 12 Sudeste 0 -- -- 78
2021-02-11 19:00:00 18.7 6 Sur 10 Sudoeste 0 -- -- 73
2021-02-11 18:00:00 20.2 6 Sudoeste 16 Sur 0 -- -- 67
2021-02-11 17:00:00 21.6 9 Sur 20 Sur 0 -- -- 63
2021-02-11 16:00:00 22.7 10 Sur 17 Sur 0 -- -- 56
2021-02-11 15:00:00 23.1 9 Sudoeste 16 Sur 0 -- -- 59
2021-02-11 14:00:00 21.9 10 Sur 17 Sur 0 -- -- 65
2021-02-11 13:00:00 21.8 9 Sur 15 Sur 0 -- -- 65
2021-02-11 12:00:00 21.7 8 Sudoeste 13 Sudoeste 0 -- -- 69
2021-02-11 11:00:00 21.1 6 Sudoeste 11 Sudoeste 0 -- -- 66
2021-02-11 10:00:00 19.5 5 Sur 8 Sur 0 -- -- 71
2021-02-11 09:00:00 16.6 4 Este 12 Este 0 -- -- 84
2021-02-11 08:00:00 12.9 8 Este 9 Este 0 -- -- 93
2021-02-11 07:00:00 12.8 4 Nordeste 8 Nordeste 0 -- -- 90
2021-02-11 06:00:00 13.7 6 Este 10 Este 0 -- -- 88
2021-02-11 05:00:00 13.4 4 Sudeste 10 Este 0 -- -- 89
2021-02-11 04:00:00 13.1 5 Este 6 Este 0 -- -- 91
2021-02-11 03:00:00 13.4 5 Nordeste 8 Nordeste 0 -- -- 90
2021-02-11 02:00:00 13.9 3 Este 6 Este 0 -- -- 90
2021-02-11 01:00:00 14.3 4 Nordeste 9 Este 0 -- -- 88
2021-02-11 00:00:00 14.7 2 Este 8 Este 0 -- -- 89
2021-02-10 23:00:00 15.5 3 Nordeste 13 Norte 0 -- -- 86
2021-02-10 22:00:00 15.4 0 Calma 3 Sudeste 0 -- -- 86
2021-02-10 21:00:00 16.5 0 Calma 14 Norte 0 -- -- 82
2021-02-10 20:00:00 17.7 9 Norte 20 Noroeste 0 -- -- 80
2021-02-10 19:00:00 18.5 7 Noroeste 17 Noroeste 0 -- -- 75
2021-02-10 18:00:00 20.3 9 Noroeste 18 Noroeste 0 -- -- 68
2021-02-10 17:00:00 22.6 13 Noroeste 21 Noroeste 0 -- -- 62
2021-02-10 16:00:00 23.9 12 Noroeste 20 Noroeste 0 -- -- 59
2021-02-10 15:00:00 24.1 13 Noroeste 26 Noroeste 0 -- -- 61
2021-02-10 14:00:00 24.3 11 Noroeste 20 Noroeste 0 -- -- 59
2021-02-10 13:00:00 23.4 13 Noroeste 20 Noroeste 0 -- -- 62
2021-02-10 12:00:00 23 12 Noroeste 16 Noroeste 0 -- -- 62
2021-02-10 11:00:00 21.8 7 Noroeste 13 Noroeste 0 -- -- 64
2021-02-10 10:00:00 20.1 6 Noroeste 11 Noroeste 0 -- -- 69
2021-02-10 09:00:00 15.5 3 Norte 8 Nordeste 0 -- -- 82
2021-02-10 08:00:00 12.6 6 Nordeste 9 Nordeste 0 -- -- 91
2021-02-10 07:00:00 12.8 4 Este 9 Este 0 -- -- 89
2021-02-10 06:00:00 13.8 8 Este 11 Este 0 -- -- 83
2021-02-10 05:00:00 13.6 6 Este 8 Este 0 -- -- 86
2021-02-10 04:00:00 13.8 5 Este 12 Este 0 -- -- 85
2021-02-10 03:00:00 14.1 9 Este 12 Este 0 -- -- 84
2021-02-10 02:00:00 13.9 8 Este 10 Este 0 -- -- 82
2021-02-10 01:00:00 13.5 6 Este 7 Este 0 -- -- 89
2021-02-10 00:00:00 13.8 3 Este 7 Nordeste 0 -- -- 87
2021-02-09 23:00:00 14.7 3 Este 8 Sudeste 0 -- -- 84
2021-02-09 22:00:00 16 8 Este 10 Este 0 -- -- 82
2021-02-09 21:00:00 16.6 8 Norte 22 Norte 0 -- -- 83
2021-02-09 20:00:00 17.1 14 Norte 26 Noroeste 0 -- -- 84
2021-02-09 19:00:00 17.7 13 Norte 27 Norte 0 -- -- 72
2021-02-09 18:00:00 19.1 15 Noroeste 32 Norte 0 -- -- 68
2021-02-09 17:00:00 21.2 16 Norte 30 Noroeste 0 -- -- 60
2021-02-09 16:00:00 23 15 Noroeste 24 Noroeste 0 -- -- 55
2021-02-09 15:00:00 23.5 13 Noroeste 22 Noroeste 0 -- -- 54
2021-02-09 14:00:00 23.8 10 Noroeste 19 Noroeste 0 -- -- 53
2021-02-09 13:00:00 23.5 11 Noroeste 22 Noroeste 0 -- -- 54
2021-02-09 12:00:00 22.4 9 Noroeste 20 Noroeste 0 -- -- 55
2021-02-09 11:00:00 21.1 11 Noroeste 26 Norte 0 -- -- 59
2021-02-09 10:00:00 19 14 Norte 25 Norte 0 -- -- 63
2021-02-09 09:00:00 16.2 7 Nordeste 15 Nordeste 0 -- -- 70
2021-02-09 08:00:00 13.6 9 Nordeste 15 Nordeste 0 -- -- 78
2021-02-09 07:00:00 13.1 8 Nordeste 13 Nordeste 0 -- -- 80
2021-02-09 06:00:00 12.9 8 Nordeste 12 Nordeste 0 -- -- 84
2021-02-09 05:00:00 12.2 6 Nordeste 9 Nordeste 0 -- -- 88
2021-02-09 04:00:00 12.3 5 Nordeste 9 Nordeste 0 -- -- 89
2021-02-09 03:00:00 13.2 7 Nordeste 10 Este 0 -- -- 89
2021-02-09 02:00:00 13.2 7 Nordeste 11 Nordeste 0 -- -- 89
2021-02-09 01:00:00 13.6 6 Este 11 Este 0 -- -- 87
2021-02-09 00:00:00 14 7 Este 12 Sudeste 0 -- -- 86
2021-02-08 23:00:00 13.8 4 Este 8 Este 0 -- -- 88
2021-02-08 22:00:00 14.6 4 Nordeste 6 Nordeste 0 -- -- 85
2021-02-08 21:00:00 15 0 Calma 14 Norte 0 -- -- 81
2021-02-08 20:00:00 16.7 8 Norte 15 Norte 0 -- -- 72
2021-02-08 19:00:00 18 3 Sudeste 9 Oeste 0 -- -- 70
2021-02-08 18:00:00 18.7 5 Oeste 8 Oeste 0 -- -- 71
2021-02-08 17:00:00 18.9 6 Sur 10 Sudoeste 0 -- -- 70
2021-02-08 16:00:00 19.1 6 Sur 13 Sudoeste 0 -- -- 68
2021-02-08 15:00:00 19.3 6 Sudoeste 10 Oeste 0 -- -- 68
2021-02-08 14:00:00 19.3 6 Sudoeste 14 Sur 0 -- -- 69
2021-02-08 13:00:00 20 6 Sudoeste 12 Sudoeste 0 -- -- 65
2021-02-08 12:00:00 20.5 7 Sudoeste 13 Oeste 0 -- -- 63
2021-02-08 11:00:00 21.3 8 Sudoeste 13 Sudoeste 0 -- -- 60
2021-02-08 10:00:00 19.4 5 Sudoeste 8 Sudoeste 0 -- -- 64
2021-02-08 09:00:00 15 6 Este 11 Este 0 -- -- 80
2021-02-08 08:00:00 13.3 5 Nordeste 9 Este 0 -- -- 85
2021-02-08 07:00:00 13.8 7 Este 10 Este 0 -- -- 83
2021-02-08 06:00:00 14.3 6 Este 9 Este 0 -- -- 82
2021-02-08 05:00:00 14.4 8 Este 10 Este 0 -- -- 82
2021-02-08 04:00:00 14.9 6 Este 9 Este 0 -- -- 80
2021-02-08 03:00:00 14.7 7 Este 9 Este 0 -- -- 82
2021-02-08 02:00:00 14.3 6 Este 12 Sudeste 0 -- -- 83
2021-02-08 01:00:00 14.1 8 Este 10 Este 0 -- -- 82
2021-02-08 00:00:00 14.5 3 Sudeste 8 Sudeste 0 -- -- 82
2021-02-07 23:00:00 15.1 2 Nordeste 7 Oeste 0 -- -- 81
2021-02-07 22:00:00 15.3 4 Noroeste 8 Noroeste 0 -- -- 79
2021-02-07 21:00:00 15.8 4 Sudoeste 12 Sudeste 0 -- -- 76
2021-02-07 20:00:00 16.3 4 Sudeste 15 Sur 0 -- -- 73
2021-02-07 19:00:00 17.1 6 Sur 14 Sur 0 -- -- 68
2021-02-07 18:00:00 18.4 9 Sur 16 Sur 0 -- -- 63
2021-02-07 17:00:00 20.4 8 Sur 16 Sur 0 -- -- 56
2021-02-07 16:00:00 21.6 9 Sudoeste 15 Sudoeste 0 -- -- 52
2021-02-07 15:00:00 22.9 9 Sudoeste 15 Noroeste 0 -- -- 52
2021-02-07 14:00:00 21.9 7 Oeste 17 Sudoeste 0 -- -- 50
2021-02-07 13:00:00 22.2 8 Noroeste 14 Oeste 0 -- -- 54
2021-02-07 12:00:00 21.4 8 Sudoeste 14 Oeste 0 -- -- 52
2021-02-07 11:00:00 20.5 5 Sudoeste 11 Oeste 0 -- -- 55
2021-02-07 10:00:00 18.9 6 Sudoeste 9 Sudoeste 0 -- -- 58
2021-02-07 09:00:00 14.8 0 Calma 9 Nordeste 0 -- -- 72
2021-02-07 08:00:00 11.9 7 Nordeste 12 Este 0 -- -- 82
2021-02-07 07:00:00 11.8 3 Este 9 Nordeste 0 -- -- 81
2021-02-07 06:00:00 13.5 5 Nordeste 14 Sudeste 0 -- -- 75
2021-02-07 05:00:00 13.9 9 Este 22 Norte 0 -- -- 70
2021-02-07 04:00:00 13.3 9 Este 14 Este 0 -- -- 72
2021-02-07 03:00:00 13.7 9 Este 14 Este 0 -- -- 71
2021-02-07 02:00:00 14.6 10 Este 36 Este 0 -- -- 62
2021-02-07 01:00:00 14.7 11 Norte 26 Norte 0 -- -- 67
2021-02-07 00:00:00 14.9 11 Norte 31 Este 0 -- -- 66
2021-02-06 23:00:00 14.9 11 Norte 31 Nordeste 0 -- -- 63
2021-02-06 22:00:00 15 11 Nordeste 29 Nordeste 0 -- -- 63
2021-02-06 21:00:00 15.2 12 Nordeste 27 Nordeste 0 -- -- 65
2021-02-06 20:00:00 15.4 13 Nordeste 38 Nordeste 0 -- -- 70
2021-02-06 19:00:00 15.9 19 Nordeste 35 Norte 0 -- -- 69
2021-02-06 18:00:00 17 15 Nordeste 35 Norte 0 -- -- 67
2021-02-06 17:00:00 19.1 12 Nordeste 32 Norte 0 -- -- 58
2021-02-06 16:00:00 19.8 15 Nordeste 30 Norte 0 -- -- 53
2021-02-06 15:00:00 19.7 12 Nordeste 34 Norte 0 -- -- 62
2021-02-06 14:00:00 20.4 16 Norte 44 Norte 0 -- -- 49
2021-02-06 13:00:00 20.4 12 Norte 32 Norte 0 -- -- 54
2021-02-06 12:00:00 20.4 11 Norte 33 Norte 0 -- -- 50
2021-02-06 11:00:00 19.3 7 Norte 26 Norte 0 -- -- 54
2021-02-06 10:00:00 17.3 10 Norte 41 Nordeste 0 -- -- 60
2021-02-06 09:00:00 14.7 15 Norte 38 Norte 0 -- -- 64
2021-02-06 08:00:00 14.1 17 Norte 37 Nordeste 0 -- -- 66
2021-02-06 07:00:00 13.9 12 Nordeste 33 Nordeste 0 -- -- 62
2021-02-06 06:00:00 14.2 14 Nordeste 44 Norte 0 -- -- 65
2021-02-06 05:00:00 13.9 12 Nordeste 40 Norte 0 -- -- 68
2021-02-06 04:00:00 13.3 15 Norte 35 Nordeste 0 -- -- 73
2021-02-06 03:00:00 13.4 5 Norte 35 Norte 0 -- -- 69
2021-02-06 02:00:00 13.7 12 Nordeste 46 Norte 0 -- -- 64
2021-02-06 01:00:00 13.7 19 Nordeste 46 Nordeste 0 -- -- 64
2021-02-06 00:00:00 12.8 14 Nordeste 37 Nordeste 0 -- -- 71
2021-02-05 23:00:00 13 11 Nordeste 51 Nordeste 0 -- -- 68
2021-02-05 22:00:00 12.7 22 Nordeste 57 Este 0.2 -- -- 73
2021-02-05 21:00:00 13 14 Nordeste 45 Norte 0.2 -- -- 71
2021-02-05 20:00:00 13.1 13 Nordeste 36 Nordeste 0 -- -- 71
2021-02-05 19:00:00 14.4 5 Este 39 Nordeste 0 -- -- 66
2021-02-05 18:00:00 15.3 12 Norte 36 Norte 0 -- -- 61
2021-02-05 17:00:00 16.6 14 Norte 40 Nordeste 0 -- -- 57
2021-02-05 16:00:00 16.3 20 Norte 42 Norte 0 -- -- 56
2021-02-05 15:00:00 17.4 15 Norte 46 Nordeste 0 -- -- 56
2021-02-05 14:00:00 15.7 22 Nordeste 53 Nordeste 0.2 -- -- 61
2021-02-05 13:00:00 13.7 24 Nordeste 55 Nordeste 2.4 -- -- 78
2021-02-05 12:00:00 13.6 19 Nordeste 50 Norte 0.2 -- -- 67
2021-02-05 11:00:00 13.5 22 Norte 55 Nordeste 0 -- -- 71
2021-02-05 10:00:00 15 21 Nordeste 48 Nordeste 0 -- -- 63
2021-02-05 09:00:00 13.5 19 Nordeste 42 Nordeste 0 -- -- 65
2021-02-05 08:00:00 12.2 20 Nordeste 42 Norte 0 -- -- 69
2021-02-05 07:00:00 12 20 Norte 42 Norte 0 -- -- 73
2021-02-05 06:00:00 11.5 20 Nordeste 35 Nordeste 1 -- -- 72
2021-02-05 05:00:00 11.1 12 Nordeste 40 Noroeste 5.2 -- -- 86
2021-02-05 04:00:00 12.8 13 Norte 44 Norte 0 -- -- 73
2021-02-05 03:00:00 12.2 24 Norte 45 Norte 0 -- -- 77
2021-02-05 02:00:00 11.4 7 Norte 35 Nordeste 3.4 -- -- 88
2021-02-05 01:00:00 12.7 12 Nordeste 36 Noroeste 2.2 -- -- 81
2021-02-05 00:00:00 14.7 22 Norte 45 Norte 0 -- -- 66
2021-02-04 23:00:00 14.5 12 Norte 39 Noroeste 0 -- -- 68
2021-02-04 22:00:00 14.9 22 Norte 57 Norte 0 -- -- 64
2021-02-04 21:00:00 15.2 30 Norte 60 Norte 0 -- -- 64
2021-02-04 20:00:00 15.4 30 Norte 54 Norte 0 -- -- 64
2021-02-04 19:00:00 15.5 27 Norte 50 Norte 0 -- -- 61
2021-02-04 18:00:00 16.5 23 Norte 51 Norte 0 -- -- 59
2021-02-04 17:00:00 17.9 22 Norte 50 Norte 0 -- -- 59
2021-02-04 16:00:00 17.5 32 Norte 57 Norte 0 -- -- 56
2021-02-04 15:00:00 18.5 28 Norte 55 Norte 0 -- -- 58
2021-02-04 14:00:00 19.3 27 Norte 52 Norte 0 -- -- 53
2021-02-04 13:00:00 18.5 27 Norte 57 Noroeste 0 -- -- 57
2021-02-04 12:00:00 19.4 32 Norte 62 Norte 0 -- -- 54
2021-02-04 11:00:00 18.5 36 Norte 54 Norte 0 -- -- 59
2021-02-04 10:00:00 18.2 23 Norte 40 Noroeste 0 -- -- 56
2021-02-04 09:00:00 16.7 9 Norte 35 Norte 0 -- -- 64
2021-02-04 08:00:00 15.9 16 Norte 38 Norte 0 -- -- 69
2021-02-04 07:00:00 15.9 15 Norte 31 Norte 0 -- -- 71
2021-02-04 06:00:00 15.9 8 Norte 31 Norte 0 -- -- 73
2021-02-04 05:00:00 15.5 10 Norte 27 Nordeste 0 -- -- 79
2021-02-04 04:00:00 14.9 11 Norte 21 Norte 0 -- -- 82
2021-02-04 03:00:00 14.8 3 Sudeste 17 Norte 0 -- -- 90
2021-02-04 02:00:00 15.2 9 Nordeste 23 Noroeste 0 -- -- 92
2021-02-04 01:00:00 15.3 13 Norte 25 Noroeste 0 -- -- 88
2021-02-04 00:00:00 15.1 3 Este 18 Este 0 -- -- 83
2021-02-03 23:00:00 15.6 8 Nordeste 23 Noroeste 0 -- -- 79
2021-02-03 22:00:00 14.9 5 Norte 11 Noroeste 0 -- -- 86
2021-02-03 21:00:00 15.6 0 Calma 10 Este 0 -- -- 82
2021-02-03 20:00:00 16.1 2 Sudeste 12 Noroeste 0 -- -- 78
2021-02-03 19:00:00 17.5 5 Noroeste 22 Norte 0 -- -- 71
2021-02-03 18:00:00 18.9 10 Norte 23 Norte 0 -- -- 68
2021-02-03 17:00:00 20.8 11 Noroeste 30 Noroeste 0 -- -- 62
2021-02-03 16:00:00 21.7 16 Noroeste 30 Noroeste 0 -- -- 59
2021-02-03 15:00:00 22.7 12 Noroeste 23 Noroeste 0 -- -- 58
2021-02-03 14:00:00 22.8 9 Noroeste 15 Noroeste 0 -- -- 60
2021-02-03 13:00:00 21.5 7 Oeste 13 Oeste 0 -- -- 66
2021-02-03 12:00:00 18.9 6 Oeste 15 Oeste 0 -- -- 72
2021-02-03 11:00:00 18.2 8 Sudoeste 14 Sudoeste 0 -- -- 77
2021-02-03 10:00:00 17.6 3 Nordeste 14 Sudeste 0 -- -- 80
2021-02-03 09:00:00 16.8 5 Este 12 Sudeste 0 -- -- 80
2021-02-03 08:00:00 16.2 6 Este 16 Sudeste 0 -- -- 82
2021-02-03 07:00:00 15.5 7 Sudeste 15 Sudeste 0 -- -- 88
2021-02-03 06:00:00 14.4 6 Este 9 Este 0 -- -- 90
2021-02-03 05:00:00 16 2 Nordeste 9 Nordeste 0 -- -- 84
2021-02-03 04:00:00 16.3 2 Este 9 Sudeste 0 -- -- 84
2021-02-03 03:00:00 16.6 4 Nordeste 9 Nordeste 0 -- -- 82
2021-02-03 02:00:00 16.4 0 Calma 13 Sur 0 -- -- 86
2021-02-03 01:00:00 17.1 8 Sur 18 Sur 0 -- -- 85
2021-02-03 00:00:00 17.2 4 Sudeste 10 Sur 0 -- -- 85
2021-02-02 23:00:00 17.3 4 Oeste 9 Sudoeste 0 -- -- 86
2021-02-02 22:00:00 17.6 5 Sudoeste 10 Oeste 0 -- -- 85
2021-02-02 21:00:00 17.6 5 Sudeste 12 Sur 0 -- -- 87
2021-02-02 20:00:00 17.6 2 Norte 16 Sur 0 -- -- 86
2021-02-02 19:00:00 18.7 10 Sur 19 Sur 0 -- -- 80
2021-02-02 18:00:00 20.9 5 Noroeste 14 Noroeste 0 -- -- 69
2021-02-02 17:00:00 22.7 11 Noroeste 20 Noroeste 0 -- -- 63
2021-02-02 16:00:00 23.8 9 Noroeste 15 Oeste 0 -- -- 62
2021-02-02 15:00:00 24.1 9 Oeste 17 Oeste 0 -- -- 63
2021-02-02 14:00:00 23.5 10 Noroeste 19 Noroeste 0 -- -- 65
2021-02-02 13:00:00 24.2 10 Noroeste 15 Oeste 0 -- -- 63
2021-02-02 12:00:00 23.5 10 Oeste 15 Oeste 0 -- -- 65
2021-02-02 11:00:00 21.3 6 Sur 12 Sur 0 -- -- 75
2021-02-02 10:00:00 20.4 8 Sur 13 Sur 0 -- -- 76
2021-02-02 09:00:00 16.7 5 Sudeste 7 Sudeste 0 -- -- 92
2021-02-02 08:00:00 14.3 3 Noroeste 9 Nordeste 0 -- -- 88
2021-02-02 07:00:00 14.4 3 Sudeste 8 Nordeste 0 -- -- 91
2021-02-02 06:00:00 14.6 4 Nordeste 9 Este 0 -- -- 85
2021-02-02 05:00:00 15.5 4 Este 10 Sudeste 0 -- -- 81
2021-02-02 04:00:00 15.3 0 Calma 4 Sudeste 0 -- -- 81
2021-02-02 03:00:00 15.9 3 Sudeste 10 Este 0 -- -- 77
2021-02-02 02:00:00 15.5 0 Calma 10 Este 0 -- -- 80
2021-02-02 01:00:00 15.7 9 Este 12 Este 0 -- -- 80
2021-02-02 00:00:00 15.3 2 Nordeste 4 Nordeste 0 -- -- 87
2021-02-01 23:00:00 16.4 2 Sudeste 10 Sur 0 -- -- 80
2021-02-01 22:00:00 16.8 5 Sudeste 6 Sudeste 0 -- -- 83
2021-02-01 21:00:00 17.5 4 Sudeste 6 Este 0 -- -- 75
2021-02-01 20:00:00 18.4 2 Sudoeste 8 Este 0 -- -- 76
2021-02-01 19:00:00 19.8 4 Sur 8 Noroeste 0 -- -- 74
2021-02-01 18:00:00 21.4 3 Noroeste 10 Sudoeste 0 -- -- 68
2021-02-01 17:00:00 23.3 8 Sudoeste 11 Sudoeste 0 -- -- 62
2021-02-01 16:00:00 24.5 6 Sudoeste 13 Sur 0 -- -- 58
2021-02-01 15:00:00 24.4 8 Sur 13 Sur 0 -- -- 56
2021-02-01 14:00:00 24.3 7 Sur 14 Sudoeste 0 -- -- 51
2021-02-01 13:00:00 24.6 6 Sur 10 Sur 0 -- -- 54
2021-02-01 12:00:00 24.5 6 Sudoeste 10 Sudoeste 0 -- -- 56
2021-02-01 11:00:00 23.8 6 Sur 9 Sur 0 -- -- 55
2021-02-01 10:00:00 22.5 4 Sudoeste 8 Sudoeste 0 -- -- 55
2021-02-01 09:00:00 19.5 5 Sudeste 20 Este 0 -- -- 64
2021-02-01 08:00:00 15.9 10 Sudeste 18 Sudeste 0 -- -- 74
2021-02-01 07:00:00 15.4 7 Nordeste 12 Nordeste 0 -- -- 78
2021-02-01 06:00:00 15.4 7 Sudeste 16 Este 0 -- -- 89
2021-02-01 05:00:00 14.4 4 Nordeste 13 Este 0 -- -- 84
2021-02-01 04:00:00 14.4 5 Sudeste 8 Sudeste 0 -- -- 90
2021-02-01 03:00:00 14.6 0 Calma 9 Nordeste 0 -- -- 86
2021-02-01 02:00:00 15.9 5 Nordeste 14 Sur 0 -- -- 84
2021-02-01 01:00:00 16.1 8 Sudeste 15 Sudeste 0 -- -- 84
2021-02-01 00:00:00 15.3 4 Este 10 Nordeste 0 -- -- 87
2021-01-31 23:00:00 15.4 3 Nordeste 7 Nordeste 0 -- -- 90
2021-01-31 22:00:00 16.1 3 Norte 7 Nordeste 0 -- -- 91
2021-01-31 21:00:00 16.7 5 Sudeste 8 Sudeste 0 -- -- 90
2021-01-31 20:00:00 17.3 4 Sur 8 Sur 0 -- -- 89
2021-01-31 19:00:00 18.2 2 Sur 11 Sur 0 -- -- 84
2021-01-31 18:00:00 19.4 8 Sur 13 Sur 0 -- -- 81
2021-01-31 17:00:00 22.9 5 Oeste 15 Oeste 0 -- -- 64
2021-01-31 16:00:00 23.8 8 Noroeste 13 Oeste 0 -- -- 62
2021-01-31 15:00:00 23 9 Sudoeste 15 Sudoeste 0 -- -- 67
2021-01-31 14:00:00 22.7 9 Sur 19 Sudoeste 0 -- -- 68
2021-01-31 13:00:00 24 9 Oeste 15 Sudoeste 0 -- -- 65
2021-01-31 12:00:00 22.6 8 Sudoeste 13 Sudoeste 0 -- -- 69
2021-01-31 11:00:00 19.5 6 Sudoeste 12 Sudoeste 0 -- -- 81
2021-01-31 10:00:00 19 6 Sudoeste 12 Oeste 0 -- -- 84
2021-01-31 09:00:00 16.9 4 Este 8 Este 0 -- -- 92
2021-01-31 08:00:00 16.2 3 Noroeste 10 Norte 0 -- -- 94
2021-01-31 07:00:00 15.5 5 Nordeste 15 Sudeste 0 -- -- 91
2021-01-31 06:00:00 16.1 9 Sudeste 21 Sudeste 0 -- -- 92
2021-01-31 05:00:00 15.6 9 Sudeste 14 Sudeste 0 -- -- 92
2021-01-31 04:00:00 14.8 6 Sudeste 9 Sudeste 0 -- -- 94
2021-01-31 03:00:00 14.8 5 Nordeste 7 Nordeste 0 -- -- 94
2021-01-31 02:00:00 15.3 2 Sudeste 9 Sur 0 -- -- 92
2021-01-31 01:00:00 16.1 8 Sudeste 17 Sudeste 0 -- -- 92
2021-01-31 00:00:00 15.9 6 Sudeste 8 Sudeste 0 -- -- 91
2021-01-30 23:00:00 17.1 5 Sudeste 10 Sudoeste 0 -- -- 86
2021-01-30 22:00:00 18 4 Sudoeste 8 Oeste 0 -- -- 85
2021-01-30 21:00:00 18 4 Oeste 9 Sudoeste 0 -- -- 86
2021-01-30 20:00:00 17.7 2 Este 12 Sur 0 -- -- 88
2021-01-30 19:00:00 18.3 8 Sur 21 Sur 0 -- -- 83
2021-01-30 18:00:00 19.7 12 Sur 22 Sudeste 0 -- -- 73
2021-01-30 17:00:00 21.1 13 Sur 23 Sur 0 -- -- 70
2021-01-30 16:00:00 22.1 14 Sur 26 Sur 0 -- -- 69
2021-01-30 15:00:00 23.6 15 Sur 22 Sur 0 -- -- 60
2021-01-30 14:00:00 24.7 6 Sudoeste 13 Sudoeste 0 -- -- 53
2021-01-30 13:00:00 24.3 7 Sudoeste 13 Sudoeste 0 -- -- 65
2021-01-30 12:00:00 24.4 8 Oeste 13 Oeste 0 -- -- 65
2021-01-30 11:00:00 23.8 4 Oeste 9 Noroeste 0 -- -- 61
2021-01-30 10:00:00 22.1 4 Oeste 10 Noroeste 0 -- -- 56
2021-01-30 09:00:00 17.7 7 Norte 11 Norte 0 -- -- 65
2021-01-30 08:00:00 16.2 8 Este 19 Este 0 -- -- 45
2021-01-30 07:00:00 16.1 5 Sudeste 19 Norte 0 -- -- 78
2021-01-30 06:00:00 17.3 12 Norte 33 Norte 0 -- -- 82
2021-01-30 05:00:00 16.6 7 Sudeste 18 Sur 0 -- -- 56
2021-01-30 04:00:00 15.8 9 Sudeste 12 Sudeste 0 -- -- 50
2021-01-30 03:00:00 15.2 4 Nordeste 10 Sudeste 0 -- -- 62
2021-01-30 02:00:00 15.3 6 Sudeste 10 Este 0 -- -- 74
2021-01-30 01:00:00 16.3 2 Norte 16 Este 0 -- -- 75
2021-01-30 00:00:00 17 4 Sudeste 11 Este 0 -- -- 45